Tasman Mariner — VRWW8 — position and weather

sailwx.info

Track history (hours):
 
Tides and Currents Weather Stations Pressure Air Temp Water Temp Dewpoint Dewpoint Depression Visibility Wind Speed Wind Dir Waves Ship Positions

Tasman Mariner

Last reported at 2017-Nov-01 00:11 UTC. Time now 2017-Nov-20 15:48 UTC.
Position N 01°15' E 104°04'.
Warning: this ship's position is 19 days out of date.

Length 184 m; beam 27 m; draft 10 m.

Type: Ship (hazmat cat C). MMSI: 477860000.

Date/timePositionNaut miles runAvg speedWind from/ knotsBaromVisibWave heightAir tempDewpointWater temp
2017-Nov-01 00:11N 01°15' E 104°04'213.4
2017-Nov-01 00:01N 01°15' E 104°02'713.7
2017-Oct-31 23:30N 01°13' E 103°55'612.0
2017-Oct-31 23:00N 01°10' E 103°50'612.6
2017-Oct-31 22:30N 01°07' E 103°45'713.8
2017-Oct-31 21:59N 01°03' E 103°38'713.9
2017-Oct-31 21:30N 01°07' E 103°32'714.0
2017-Oct-31 20:59N 01°10' E 103°26'612.7
2017-Oct-31 20:30N 01°14' E 103°21'610.3
2017-Oct-31 19:57N 01°17' E 103°17'  
2017-Oct-28 18:59N 01°18' E 103°43'0 0.0
2017-Oct-28 18:29N 01°18' E 103°43'0 0.0
2017-Oct-28 17:59N 01°18' E 103°43'0 0.0
2017-Oct-28 17:29N 01°18' E 103°43'0 0.0
2017-Oct-28 16:59N 01°18' E 103°43'0 0.0
2017-Oct-28 16:26N 01°18' E 103°43'0 0.0
2017-Oct-28 15:59N 01°18' E 103°43'0 0.0
2017-Oct-28 15:29N 01°18' E 103°43'0 0.0
2017-Oct-28 14:59N 01°18' E 103°43'0 0.0
2017-Oct-28 14:29N 01°18' E 103°43'0 0.0
2017-Oct-28 13:56N 01°18' E 103°43'0 0.0
2017-Oct-28 13:23N 01°18' E 103°43'0 0.0
2017-Oct-28 12:56N 01°18' E 103°43'0 0.0
2017-Oct-28 12:26N 01°18' E 103°43'0 0.0
2017-Oct-28 11:59N 01°18' E 103°43'0 0.0
2017-Oct-28 11:29N 01°18' E 103°43'0 0.0
2017-Oct-28 10:56N 01°18' E 103°43'0 0.0
2017-Oct-28 10:29N 01°18' E 103°43'0 0.0
2017-Oct-28 09:56N 01°18' E 103°43'0 0.0
2017-Oct-28 09:29N 01°18' E 103°43'0 0.1
2017-Oct-28 09:00N 01°18' E 103°43'1 1.7
2017-Oct-28 08:30N 01°18' E 103°44'3 6.6
2017-Oct-28 08:00N 01°15' E 103°47'4 8.1
2017-Oct-28 07:30N 01°13' E 103°49'3 6.3
2017-Oct-28 07:00N 01°15' E 103°51'2 3.0
2017-Oct-28 06:30N 01°16' E 103°50'0 0.0
2017-Oct-28 06:01N 01°16' E 103°50'0 0.0
2017-Oct-28 05:30N 01°16' E 103°50'0 0.0
2017-Oct-28 04:57N 01°16' E 103°50'0 0.0
2017-Oct-28 04:30N 01°16' E 103°50'0 0.0
2017-Oct-28 03:57N 01°16' E 103°50'0 0.0
2017-Oct-28 03:24N 01°16' E 103°50'0 0.0
2017-Oct-28 02:57N 01°16' E 103°50'0 0.0
2017-Oct-28 02:30N 01°16' E 103°50'0 0.0
2017-Oct-28 01:51N 01°16' E 103°50'0 0.0
2017-Oct-28 01:27N 01°16' E 103°50'0 0.0
2017-Oct-28 01:00N 01°16' E 103°50'0 0.0
2017-Oct-28 00:30N 01°16' E 103°50'0 0.0
2017-Oct-28 00:00N 01°16' E 103°50'0 0.0
2017-Oct-27 23:30N 01°16' E 103°50'0 0.0
2017-Oct-27 22:59N 01°16' E 103°50'0 0.0
2017-Oct-27 22:29N 01°16' E 103°50'0 0.0
2017-Oct-27 21:59N 01°16' E 103°50'0 0.0
2017-Oct-27 21:29N 01°16' E 103°50'0 0.0
2017-Oct-27 20:59N 01°16' E 103°50'0 0.0
2017-Oct-27 20:29N 01°16' E 103°50'0 0.0
2017-Oct-27 19:59N 01°16' E 103°50'0 0.0
2017-Oct-27 19:29N 01°16' E 103°50'0 0.0
2017-Oct-27 18:59N 01°16' E 103°50'0 0.0
2017-Oct-27 18:29N 01°16' E 103°50'0 0.0
2017-Oct-27 17:59N 01°16' E 103°50'0 0.0
2017-Oct-27 17:29N 01°16' E 103°50'0 0.0
2017-Oct-27 16:59N 01°16' E 103°50'0 0.0
2017-Oct-27 16:29N 01°16' E 103°50'0 0.0
2017-Oct-27 15:47N 01°16' E 103°50'0 0.0
2017-Oct-27 15:29N 01°16' E 103°50'0 0.0
2017-Oct-27 14:56N 01°16' E 103°50'0 0.0
2017-Oct-27 14:29N 01°16' E 103°50'0 0.0
2017-Oct-27 13:59N 01°16' E 103°50'0 0.0
2017-Oct-27 13:29N 01°16' E 103°50'0 0.0
2017-Oct-27 12:59N 01°16' E 103°50'0 0.0
2017-Oct-27 12:26N 01°16' E 103°50'0 0.0
2017-Oct-27 11:59N 01°16' E 103°50'1 2.5
2017-Oct-27 11:31N 01°15' E 103°51'5 9.0
2017-Oct-27 11:01N 01°14' E 103°55'4 8.2
2017-Oct-27 10:30N 01°15' E 103°59'  
Track history (hours):
 
Tides and Currents Weather Stations Pressure Air Temp Water Temp Dewpoint Dewpoint Depression Visibility Wind Speed Wind Dir Waves Ship Positions

Tasman Mariner

Last reported at 2017-Nov-01 00:11 UTC. Time now 2017-Nov-20 15:48 UTC.
Position N 01°15' E 104°04'.
Warning: this ship's position is 19 days out of date.

Length 184 m; beam 27 m; draft 10 m.

Type: Ship (hazmat cat C). MMSI: 477860000.

Date/timePositionNaut miles runAvg speedWind from/ knotsBaromVisibWave heightAir tempDewpointWater temp
2017-Nov-01 00:11N 01°15' E 104°04'213.4
2017-Nov-01 00:01N 01°15' E 104°02'713.7
2017-Oct-31 23:30N 01°13' E 103°55'612.0
2017-Oct-31 23:00N 01°10' E 103°50'612.6
2017-Oct-31 22:30N 01°07' E 103°45'713.8
2017-Oct-31 21:59N 01°03' E 103°38'713.9
2017-Oct-31 21:30N 01°07' E 103°32'714.0
2017-Oct-31 20:59N 01°10' E 103°26'612.7
2017-Oct-31 20:30N 01°14' E 103°21'610.3
2017-Oct-31 19:57N 01°17' E 103°17'  
2017-Oct-28 18:59N 01°18' E 103°43'0 0.0
2017-Oct-28 18:29N 01°18' E 103°43'0 0.0
2017-Oct-28 17:59N 01°18' E 103°43'0 0.0
2017-Oct-28 17:29N 01°18' E 103°43'0 0.0
2017-Oct-28 16:59N 01°18' E 103°43'0 0.0
2017-Oct-28 16:26N 01°18' E 103°43'0 0.0
2017-Oct-28 15:59N 01°18' E 103°43'0 0.0
2017-Oct-28 15:29N 01°18' E 103°43'0 0.0
2017-Oct-28 14:59N 01°18' E 103°43'0 0.0
2017-Oct-28 14:29N 01°18' E 103°43'0 0.0
2017-Oct-28 13:56N 01°18' E 103°43'0 0.0
2017-Oct-28 13:23N 01°18' E 103°43'0 0.0
2017-Oct-28 12:56N 01°18' E 103°43'0 0.0
2017-Oct-28 12:26N 01°18' E 103°43'0 0.0
2017-Oct-28 11:59N 01°18' E 103°43'0 0.0
2017-Oct-28 11:29N 01°18' E 103°43'0 0.0
2017-Oct-28 10:56N 01°18' E 103°43'0 0.0
2017-Oct-28 10:29N 01°18' E 103°43'0 0.0
2017-Oct-28 09:56N 01°18' E 103°43'0 0.0
2017-Oct-28 09:29N 01°18' E 103°43'0 0.1
2017-Oct-28 09:00N 01°18' E 103°43'1 1.7
2017-Oct-28 08:30N 01°18' E 103°44'3 6.6
2017-Oct-28 08:00N 01°15' E 103°47'4 8.1
2017-Oct-28 07:30N 01°13' E 103°49'3 6.3
2017-Oct-28 07:00N 01°15' E 103°51'2 3.0
2017-Oct-28 06:30N 01°16' E 103°50'0 0.0
2017-Oct-28 06:01N 01°16' E 103°50'0 0.0
2017-Oct-28 05:30N 01°16' E 103°50'0 0.0
2017-Oct-28 04:57N 01°16' E 103°50'0 0.0
2017-Oct-28 04:30N 01°16' E 103°50'0 0.0
2017-Oct-28 03:57N 01°16' E 103°50'0 0.0
2017-Oct-28 03:24N 01°16' E 103°50'0 0.0
2017-Oct-28 02:57N 01°16' E 103°50'0 0.0
2017-Oct-28 02:30N 01°16' E 103°50'0 0.0
2017-Oct-28 01:51N 01°16' E 103°50'0 0.0
2017-Oct-28 01:27N 01°16' E 103°50'0 0.0
2017-Oct-28 01:00N 01°16' E 103°50'0 0.0
2017-Oct-28 00:30N 01°16' E 103°50'0 0.0
2017-Oct-28 00:00N 01°16' E 103°50'0 0.0
2017-Oct-27 23:30N 01°16' E 103°50'0 0.0
2017-Oct-27 22:59N 01°16' E 103°50'0 0.0
2017-Oct-27 22:29N 01°16' E 103°50'0 0.0
2017-Oct-27 21:59N 01°16' E 103°50'0 0.0
2017-Oct-27 21:29N 01°16' E 103°50'0 0.0
2017-Oct-27 20:59N 01°16' E 103°50'0 0.0
2017-Oct-27 20:29N 01°16' E 103°50'0 0.0
2017-Oct-27 19:59N 01°16' E 103°50'0 0.0
2017-Oct-27 19:29N 01°16' E 103°50'0 0.0
2017-Oct-27 18:59N 01°16' E 103°50'0 0.0
2017-Oct-27 18:29N 01°16' E 103°50'0 0.0
2017-Oct-27 17:59N 01°16' E 103°50'0 0.0
2017-Oct-27 17:29N 01°16' E 103°50'0 0.0
2017-Oct-27 16:59N 01°16' E 103°50'0 0.0
2017-Oct-27 16:29N 01°16' E 103°50'0 0.0
2017-Oct-27 15:47N 01°16' E 103°50'0 0.0
2017-Oct-27 15:29N 01°16' E 103°50'0 0.0
2017-Oct-27 14:56N 01°16' E 103°50'0 0.0
2017-Oct-27 14:29N 01°16' E 103°50'0 0.0
2017-Oct-27 13:59N 01°16' E 103°50'0 0.0
2017-Oct-27 13:29N 01°16' E 103°50'0 0.0
2017-Oct-27 12:59N 01°16' E 103°50'0 0.0
2017-Oct-27 12:26N 01°16' E 103°50'0 0.0
2017-Oct-27 11:59N 01°16' E 103°50'1 2.5
2017-Oct-27 11:31N 01°15' E 103°51'5 9.0
2017-Oct-27 11:01N 01°14' E 103°55'4 8.2
2017-Oct-27 10:30N 01°15' E 103°59'  

Dump ship's entire track history